sensor_id;sensor_type;location;lat;lon;timestamp;temperature;humidity
2282;DHT22;27486;48.77806476;9.16920056;2022-09-30T00:01:06;11.80;98.90
2282;DHT22;27486;48.77806476;9.16920056;2022-09-30T00:03:54;11.80;98.90
2282;DHT22;27486;48.77806476;9.16920056;2022-09-30T00:06:38;11.90;98.70
2282;DHT22;27486;48.77806476;9.16920056;2022-09-30T00:09:22;12.00;98.80
2282;DHT22;27486;48.77806476;9.16920056;2022-09-30T00:12:06;12.00;98.60
2282;DHT22;27486;48.77806476;9.16920056;2022-09-30T00:14:50;12.10;98.40
2282;DHT22;27486;48.77806476;9.16920056;2022-09-30T00:17:34;12.10;98.30
2282;DHT22;27486;48.77806476;9.16920056;2022-09-30T00:20:18;12.20;97.90
2282;DHT22;27486;48.77806476;9.16920056;2022-09-30T00:23:02;12.30;97.50
2282;DHT22;27486;48.77806476;9.16920056;2022-09-30T00:25:46;12.30;97.40
2282;DHT22;27486;48.77806476;9.16920056;2022-09-30T00:28:31;12.30;97.40
2282;DHT22;27486;48.77806476;9.16920056;2022-09-30T00:31:16;12.30;97.60
2282;DHT22;27486;48.77806476;9.16920056;2022-09-30T00:34:01;12.30;97.70
2282;DHT22;27486;48.77806476;9.16920056;2022-09-30T00:36:55;12.30;97.50
2282;DHT22;27486;48.77806476;9.16920056;2022-09-30T00:39:39;12.40;97.20
2282;DHT22;27486;48.77806476;9.16920056;2022-09-30T00:42:23;12.40;97.20
2282;DHT22;27486;48.77806476;9.16920056;2022-09-30T00:45:10;12.40;97.40
2282;DHT22;27486;48.77806476;9.16920056;2022-09-30T00:48:10;12.40;97.40
2282;DHT22;27486;48.77806476;9.16920056;2022-09-30T00:50:56;12.40;97.60
2282;DHT22;27486;48.77806476;9.16920056;2022-09-30T00:53:53;12.40;97.50
2282;DHT22;27486;48.77806476;9.16920056;2022-09-30T00:56:43;12.60;97.40
2282;DHT22;27486;48.77806476;9.16920056;2022-09-30T00:59:42;12.60;97.20
2282;DHT22;27486;48.77806476;9.16920056;2022-09-30T01:02:27;12.70;97.10
2282;DHT22;27486;48.77806476;9.16920056;2022-09-30T01:05:11;12.70;96.90
2282;DHT22;27486;48.77806476;9.16920056;2022-09-30T01:07:57;12.60;97.00
2282;DHT22;27486;48.77806476;9.16920056;2022-09-30T01:10:44;12.60;97.00
2282;DHT22;27486;48.77806476;9.16920056;2022-09-30T01:13:30;12.70;96.90
2282;DHT22;27486;48.77806476;9.16920056;2022-09-30T01:22:43;12.80;96.40
2282;DHT22;27486;48.77806476;9.16920056;2022-09-30T01:28:41;12.80;96.30
2282;DHT22;27486;48.77806476;9.16920056;2022-09-30T01:31:48;12.80;96.40
2282;DHT22;27486;48.77806476;9.16920056;2022-09-30T01:34:55;12.80;96.40
2282;DHT22;27486;48.77806476;9.16920056;2022-09-30T01:47:18;12.90;96.20
2282;DHT22;27486;48.77806476;9.16920056;2022-09-30T01:59:26;12.80;96.10
2282;DHT22;27486;48.77806476;9.16920056;2022-09-30T02:02:20;12.80;96.30
2282;DHT22;27486;48.77806476;9.16920056;2022-09-30T02:05:10;12.70;96.40
2282;DHT22;27486;48.77806476;9.16920056;2022-09-30T02:08:00;12.80;96.50
2282;DHT22;27486;48.77806476;9.16920056;2022-09-30T02:10:52;12.80;96.30
2282;DHT22;27486;48.77806476;9.16920056;2022-09-30T02:14:01;12.80;96.30
2282;DHT22;27486;48.77806476;9.16920056;2022-09-30T02:16:51;12.70;96.60
2282;DHT22;27486;48.77806476;9.16920056;2022-09-30T02:19:41;12.80;96.50
2282;DHT22;27486;48.77806476;9.16920056;2022-09-30T02:22:30;12.80;96.50
2282;DHT22;27486;48.77806476;9.16920056;2022-09-30T02:25:19;12.70;96.30
2282;DHT22;27486;48.77806476;9.16920056;2022-09-30T02:28:08;12.60;96.70
2282;DHT22;27486;48.77806476;9.16920056;2022-09-30T02:30:57;12.40;97.00
2282;DHT22;27486;48.77806476;9.16920056;2022-09-30T02:33:56;12.30;97.60
2282;DHT22;27486;48.77806476;9.16920056;2022-09-30T02:37:09;12.20;98.00
2282;DHT22;27486;48.77806476;9.16920056;2022-09-30T02:39:58;12.10;98.20
2282;DHT22;27486;48.77806476;9.16920056;2022-09-30T02:42:44;12.00;98.30
2282;DHT22;27486;48.77806476;9.16920056;2022-09-30T02:45:31;11.90;98.40
2282;DHT22;27486;48.77806476;9.16920056;2022-09-30T02:51:22;11.70;99.20
2282;DHT22;27486;48.77806476;9.16920056;2022-09-30T02:57:15;11.70;99.70
2282;DHT22;27486;48.77806476;9.16920056;2022-09-30T03:00:04;11.60;99.90
2282;DHT22;27486;48.77806476;9.16920056;2022-09-30T03:02:55;11.60;99.90
2282;DHT22;27486;48.77806476;9.16920056;2022-09-30T03:05:43;11.60;99.90
2282;DHT22;27486;48.77806476;9.16920056;2022-09-30T03:08:27;11.60;99.90
2282;DHT22;27486;48.77806476;9.16920056;2022-09-30T03:11:16;11.50;99.90
2282;DHT22;27486;48.77806476;9.16920056;2022-09-30T03:17:33;11.40;99.90
2282;DHT22;27486;48.77806476;9.16920056;2022-09-30T03:21:01;11.30;99.90
2282;DHT22;27486;48.77806476;9.16920056;2022-09-30T03:27:21;11.20;99.90
2282;DHT22;27486;48.77806476;9.16920056;2022-09-30T03:30:29;11.20;99.90
2282;DHT22;27486;48.77806476;9.16920056;2022-09-30T03:33:24;11.20;99.90
2282;DHT22;27486;48.77806476;9.16920056;2022-09-30T03:36:27;11.10;99.90
2282;DHT22;27486;48.77806476;9.16920056;2022-09-30T03:39:43;11.20;99.90
2282;DHT22;27486;48.77806476;9.16920056;2022-09-30T03:42:42;11.20;99.90
2282;DHT22;27486;48.77806476;9.16920056;2022-09-30T03:45:35;11.20;99.90
2282;DHT22;27486;48.77806476;9.16920056;2022-09-30T03:48:23;11.20;99.90
2282;DHT22;27486;48.77806476;9.16920056;2022-09-30T03:51:08;11.20;99.90
2282;DHT22;27486;48.77806476;9.16920056;2022-09-30T03:53:53;11.30;99.90
2282;DHT22;27486;48.77806476;9.16920056;2022-09-30T03:56:39;11.30;99.90
2282;DHT22;27486;48.77806476;9.16920056;2022-09-30T03:59:26;11.30;99.90
2282;DHT22;27486;48.77806476;9.16920056;2022-09-30T04:02:11;11.30;99.90
2282;DHT22;27486;48.77806476;9.16920056;2022-09-30T04:04:55;11.30;99.90
2282;DHT22;27486;48.77806476;9.16920056;2022-09-30T04:07:40;11.30;99.90
2282;DHT22;27486;48.77806476;9.16920056;2022-09-30T04:10:24;11.20;99.90
2282;DHT22;27486;48.77806476;9.16920056;2022-09-30T04:13:08;11.20;99.90
2282;DHT22;27486;48.77806476;9.16920056;2022-09-30T04:15:53;11.20;99.90
2282;DHT22;27486;48.77806476;9.16920056;2022-09-30T04:18:38;11.20;99.90
2282;DHT22;27486;48.77806476;9.16920056;2022-09-30T04:21:22;11.20;99.90
2282;DHT22;27486;48.77806476;9.16920056;2022-09-30T04:24:06;11.10;99.90
2282;DHT22;27486;48.77806476;9.16920056;2022-09-30T04:26:51;11.10;99.90
2282;DHT22;27486;48.77806476;9.16920056;2022-09-30T04:29:35;11.20;99.90
2282;DHT22;27486;48.77806476;9.16920056;2022-09-30T04:32:21;11.20;99.90
2282;DHT22;27486;48.77806476;9.16920056;2022-09-30T04:35:05;11.20;99.90
2282;DHT22;27486;48.77806476;9.16920056;2022-09-30T04:37:50;11.20;99.90
2282;DHT22;27486;48.77806476;9.16920056;2022-09-30T04:40:37;11.00;99.90
2282;DHT22;27486;48.77806476;9.16920056;2022-09-30T04:43:23;11.00;99.90
2282;DHT22;27486;48.77806476;9.16920056;2022-09-30T04:46:07;10.90;99.90
2282;DHT22;27486;48.77806476;9.16920056;2022-09-30T04:48:51;10.90;99.90
2282;DHT22;27486;48.77806476;9.16920056;2022-09-30T04:51:35;10.90;99.90
2282;DHT22;27486;48.77806476;9.16920056;2022-09-30T04:54:21;10.80;99.90
2282;DHT22;27486;48.77806476;9.16920056;2022-09-30T04:57:05;10.80;99.90
2282;DHT22;27486;48.77806476;9.16920056;2022-09-30T04:59:49;10.80;99.90
2282;DHT22;27486;48.77806476;9.16920056;2022-09-30T05:02:34;10.80;99.90
2282;DHT22;27486;48.77806476;9.16920056;2022-09-30T05:05:18;10.70;99.90
2282;DHT22;27486;48.77806476;9.16920056;2022-09-30T05:08:04;10.60;99.90
2282;DHT22;27486;48.77806476;9.16920056;2022-09-30T05:10:56;10.50;99.90
2282;DHT22;27486;48.77806476;9.16920056;2022-09-30T05:13:41;10.40;99.90
2282;DHT22;27486;48.77806476;9.16920056;2022-09-30T05:16:25;10.40;99.90
2282;DHT22;27486;48.77806476;9.16920056;2022-09-30T05:19:10;10.30;99.90
2282;DHT22;27486;48.77806476;9.16920056;2022-09-30T05:21:54;10.30;99.90
2282;DHT22;27486;48.77806476;9.16920056;2022-09-30T05:24:38;10.30;99.90
2282;DHT22;27486;48.77806476;9.16920056;2022-09-30T05:27:23;10.30;99.90
2282;DHT22;27486;48.77806476;9.16920056;2022-09-30T05:30:07;10.20;99.90
2282;DHT22;27486;48.77806476;9.16920056;2022-09-30T05:32:52;10.20;99.90
2282;DHT22;27486;48.77806476;9.16920056;2022-09-30T05:35:37;10.20;99.90
2282;DHT22;27486;48.77806476;9.16920056;2022-09-30T05:38:21;10.30;99.90
2282;DHT22;27486;48.77806476;9.16920056;2022-09-30T05:41:07;10.20;99.90
2282;DHT22;27486;48.77806476;9.16920056;2022-09-30T05:43:51;10.10;99.90
2282;DHT22;27486;48.77806476;9.16920056;2022-09-30T05:46:35;10.10;99.90
2282;DHT22;27486;48.77806476;9.16920056;2022-09-30T05:49:20;10.10;99.90
2282;DHT22;27486;48.77806476;9.16920056;2022-09-30T05:52:04;10.20;99.90
2282;DHT22;27486;48.77806476;9.16920056;2022-09-30T05:54:48;10.10;99.90
2282;DHT22;27486;48.77806476;9.16920056;2022-09-30T05:57:33;10.10;99.90
2282;DHT22;27486;48.77806476;9.16920056;2022-09-30T06:00:18;10.10;99.90
2282;DHT22;27486;48.77806476;9.16920056;2022-09-30T06:03:02;10.20;99.90
2282;DHT22;27486;48.77806476;9.16920056;2022-09-30T06:05:47;10.20;99.90
2282;DHT22;27486;48.77806476;9.16920056;2022-09-30T06:08:31;10.20;99.90
2282;DHT22;27486;48.77806476;9.16920056;2022-09-30T06:11:17;10.20;99.90
2282;DHT22;27486;48.77806476;9.16920056;2022-09-30T06:14:02;10.20;99.90
2282;DHT22;27486;48.77806476;9.16920056;2022-09-30T06:16:46;10.30;99.90
2282;DHT22;27486;48.77806476;9.16920056;2022-09-30T06:19:31;10.20;99.90
2282;DHT22;27486;48.77806476;9.16920056;2022-09-30T06:22:16;10.20;99.90
2282;DHT22;27486;48.77806476;9.16920056;2022-09-30T06:25:04;10.30;99.90
2282;DHT22;27486;48.77806476;9.16920056;2022-09-30T06:27:48;10.30;99.90
2282;DHT22;27486;48.77806476;9.16920056;2022-09-30T06:30:33;10.40;99.90
2282;DHT22;27486;48.77806476;9.16920056;2022-09-30T06:33:16;10.40;99.90
2282;DHT22;27486;48.77806476;9.16920056;2022-09-30T06:36:01;10.50;99.90
2282;DHT22;27486;48.77806476;9.16920056;2022-09-30T06:38:48;10.60;99.90
2282;DHT22;27486;48.77806476;9.16920056;2022-09-30T06:41:35;10.70;99.90
2282;DHT22;27486;48.77806476;9.16920056;2022-09-30T06:44:26;10.80;99.90
2282;DHT22;27486;48.77806476;9.16920056;2022-09-30T06:47:11;11.10;99.90
2282;DHT22;27486;48.77806476;9.16920056;2022-09-30T06:49:55;11.20;99.90
2282;DHT22;27486;48.77806476;9.16920056;2022-09-30T06:52:42;11.30;99.90
2282;DHT22;27486;48.77806476;9.16920056;2022-09-30T06:55:27;11.50;99.90
2282;DHT22;27486;48.77806476;9.16920056;2022-09-30T06:58:13;11.70;99.90
2282;DHT22;27486;48.77806476;9.16920056;2022-09-30T07:01:02;11.90;99.90
2282;DHT22;27486;48.77806476;9.16920056;2022-09-30T07:03:46;12.10;99.90
2282;DHT22;27486;48.77806476;9.16920056;2022-09-30T07:06:30;12.30;99.80
2282;DHT22;27486;48.77806476;9.16920056;2022-09-30T07:09:14;12.30;99.30
2282;DHT22;27486;48.77806476;9.16920056;2022-09-30T07:11:58;12.40;99.30
2282;DHT22;27486;48.77806476;9.16920056;2022-09-30T07:14:42;12.40;99.20
2282;DHT22;27486;48.77806476;9.16920056;2022-09-30T07:17:26;12.50;99.00
2282;DHT22;27486;48.77806476;9.16920056;2022-09-30T07:20:11;12.70;98.90
2282;DHT22;27486;48.77806476;9.16920056;2022-09-30T07:22:55;12.80;98.10
2282;DHT22;27486;48.77806476;9.16920056;2022-09-30T07:25:39;12.90;97.90
2282;DHT22;27486;48.77806476;9.16920056;2022-09-30T07:28:25;13.00;97.80
2282;DHT22;27486;48.77806476;9.16920056;2022-09-30T07:31:18;13.00;97.30
2282;DHT22;27486;48.77806476;9.16920056;2022-09-30T07:34:05;13.00;97.10
2282;DHT22;27486;48.77806476;9.16920056;2022-09-30T07:36:49;13.00;97.00
2282;DHT22;27486;48.77806476;9.16920056;2022-09-30T07:39:34;13.10;97.20
2282;DHT22;27486;48.77806476;9.16920056;2022-09-30T07:42:18;13.30;97.00
2282;DHT22;27486;48.77806476;9.16920056;2022-09-30T07:45:04;13.40;96.30
2282;DHT22;27486;48.77806476;9.16920056;2022-09-30T07:47:49;13.40;96.10
2282;DHT22;27486;48.77806476;9.16920056;2022-09-30T07:50:32;13.50;96.00
2282;DHT22;27486;48.77806476;9.16920056;2022-09-30T07:53:16;13.40;95.70
2282;DHT22;27486;48.77806476;9.16920056;2022-09-30T07:56:07;13.40;95.80
2282;DHT22;27486;48.77806476;9.16920056;2022-09-30T07:58:56;13.50;95.90
2282;DHT22;27486;48.77806476;9.16920056;2022-09-30T08:01:43;13.70;95.80
2282;DHT22;27486;48.77806476;9.16920056;2022-09-30T08:04:28;13.90;95.20
2282;DHT22;27486;48.77806476;9.16920056;2022-09-30T08:07:14;14.10;94.60
2282;DHT22;27486;48.77806476;9.16920056;2022-09-30T08:09:58;14.20;94.30
2282;DHT22;27486;48.77806476;9.16920056;2022-09-30T08:12:42;14.40;94.20
2282;DHT22;27486;48.77806476;9.16920056;2022-09-30T08:15:26;14.60;94.30
2282;DHT22;27486;48.77806476;9.16920056;2022-09-30T08:18:11;14.90;93.80
2282;DHT22;27486;48.77806476;9.16920056;2022-09-30T08:20:55;15.10;92.50
2282;DHT22;27486;48.77806476;9.16920056;2022-09-30T08:23:40;15.20;92.20
2282;DHT22;27486;48.77806476;9.16920056;2022-09-30T08:26:24;15.30;92.50
2282;DHT22;27486;48.77806476;9.16920056;2022-09-30T08:29:08;15.40;91.90
2282;DHT22;27486;48.77806476;9.16920056;2022-09-30T08:31:54;15.50;91.60
2282;DHT22;27486;48.77806476;9.16920056;2022-09-30T08:34:38;15.60;90.80
2282;DHT22;27486;48.77806476;9.16920056;2022-09-30T08:37:22;15.60;90.70
2282;DHT22;27486;48.77806476;9.16920056;2022-09-30T08:40:17;15.60;91.00
2282;DHT22;27486;48.77806476;9.16920056;2022-09-30T08:46:31;15.50;90.30
2282;DHT22;27486;48.77806476;9.16920056;2022-09-30T08:52:16;15.00;91.40
2282;DHT22;27486;48.77806476;9.16920056;2022-09-30T08:55:03;15.00;91.80
2282;DHT22;27486;48.77806476;9.16920056;2022-09-30T08:57:48;15.00;91.80
2282;DHT22;27486;48.77806476;9.16920056;2022-09-30T09:00:33;14.90;92.00
2282;DHT22;27486;48.77806476;9.16920056;2022-09-30T09:03:18;14.90;91.80
2282;DHT22;27486;48.77806476;9.16920056;2022-09-30T09:06:28;14.90;91.90
2282;DHT22;27486;48.77806476;9.16920056;2022-09-30T09:15:46;15.10;91.80
2282;DHT22;27486;48.77806476;9.16920056;2022-09-30T09:24:44;15.30;91.60
2282;DHT22;27486;48.77806476;9.16920056;2022-09-30T09:27:58;15.40;91.20
2282;DHT22;27486;48.77806476;9.16920056;2022-09-30T09:30:53;15.50;91.00
2282;DHT22;27486;48.77806476;9.16920056;2022-09-30T09:33:40;15.40;90.70
2282;DHT22;27486;48.77806476;9.16920056;2022-09-30T09:39:57;15.50;90.70
2282;DHT22;27486;48.77806476;9.16920056;2022-09-30T09:42:51;15.50;90.60
2282;DHT22;27486;48.77806476;9.16920056;2022-09-30T09:45:53;15.70;90.00
2282;DHT22;27486;48.77806476;9.16920056;2022-09-30T09:48:39;15.70;89.10
2282;DHT22;27486;48.77806476;9.16920056;2022-09-30T09:51:27;15.70;87.30
2282;DHT22;27486;48.77806476;9.16920056;2022-09-30T09:54:16;15.70;87.80
2282;DHT22;27486;48.77806476;9.16920056;2022-09-30T09:57:09;15.90;87.60
2282;DHT22;27486;48.77806476;9.16920056;2022-09-30T10:00:08;16.10;85.30
2282;DHT22;27486;48.77806476;9.16920056;2022-09-30T10:03:16;16.20;84.10
2282;DHT22;27486;48.77806476;9.16920056;2022-09-30T10:06:07;16.20;84.10
2282;DHT22;27486;48.77806476;9.16920056;2022-09-30T10:08:53;16.20;83.00
2282;DHT22;27486;48.77806476;9.16920056;2022-09-30T10:11:38;16.10;83.20
2282;DHT22;27486;48.77806476;9.16920056;2022-09-30T10:14:22;16.10;84.70
2282;DHT22;27486;48.77806476;9.16920056;2022-09-30T10:17:17;16.10;84.20
2282;DHT22;27486;48.77806476;9.16920056;2022-09-30T10:20:26;16.10;83.90
2282;DHT22;27486;48.77806476;9.16920056;2022-09-30T10:23:24;16.10;84.70
2282;DHT22;27486;48.77806476;9.16920056;2022-09-30T10:29:00;16.50;83.10
2282;DHT22;27486;48.77806476;9.16920056;2022-09-30T10:31:45;16.60;82.70
2282;DHT22;27486;48.77806476;9.16920056;2022-09-30T10:37:22;16.80;81.10
2282;DHT22;27486;48.77806476;9.16920056;2022-09-30T10:40:11;17.00;81.80
2282;DHT22;27486;48.77806476;9.16920056;2022-09-30T10:42:59;17.10;78.10
2282;DHT22;27486;48.77806476;9.16920056;2022-09-30T10:45:43;17.20;78.50
2282;DHT22;27486;48.77806476;9.16920056;2022-09-30T10:48:32;17.20;78.20
2282;DHT22;27486;48.77806476;9.16920056;2022-09-30T10:51:23;17.30;77.60
2282;DHT22;27486;48.77806476;9.16920056;2022-09-30T10:57:22;17.50;75.20
2282;DHT22;27486;48.77806476;9.16920056;2022-09-30T11:00:14;17.50;75.60
2282;DHT22;27486;48.77806476;9.16920056;2022-09-30T11:03:10;17.50;73.70
2282;DHT22;27486;48.77806476;9.16920056;2022-09-30T11:05:56;17.60;73.80
2282;DHT22;27486;48.77806476;9.16920056;2022-09-30T11:09:13;17.80;74.10
2282;DHT22;27486;48.77806476;9.16920056;2022-09-30T11:12:03;17.90;71.60
2282;DHT22;27486;48.77806476;9.16920056;2022-09-30T11:15:08;18.00;68.10
2282;DHT22;27486;48.77806476;9.16920056;2022-09-30T11:18:04;18.00;66.50
2282;DHT22;27486;48.77806476;9.16920056;2022-09-30T11:20:58;18.20;65.10
2282;DHT22;27486;48.77806476;9.16920056;2022-09-30T11:23:55;18.30;64.10
2282;DHT22;27486;48.77806476;9.16920056;2022-09-30T11:27:15;18.40;64.40
2282;DHT22;27486;48.77806476;9.16920056;2022-09-30T11:30:17;18.40;61.70
2282;DHT22;27486;48.77806476;9.16920056;2022-09-30T11:33:23;18.40;62.30
2282;DHT22;27486;48.77806476;9.16920056;2022-09-30T11:36:41;18.50;60.40
2282;DHT22;27486;48.77806476;9.16920056;2022-09-30T11:39:35;18.50;60.80
2282;DHT22;27486;48.77806476;9.16920056;2022-09-30T11:52:53;19.00;60.20
2282;DHT22;27486;48.77806476;9.16920056;2022-09-30T11:58:44;19.10;58.20
2282;DHT22;27486;48.77806476;9.16920056;2022-09-30T12:01:33;19.10;58.80
2282;DHT22;27486;48.77806476;9.16920056;2022-09-30T12:07:17;19.30;56.70
2282;DHT22;27486;48.77806476;9.16920056;2022-09-30T12:10:30;19.30;55.50
2282;DHT22;27486;48.77806476;9.16920056;2022-09-30T12:13:19;19.30;56.90
2282;DHT22;27486;48.77806476;9.16920056;2022-09-30T12:16:09;19.30;56.10
2282;DHT22;27486;48.77806476;9.16920056;2022-09-30T12:19:21;19.40;56.90
2282;DHT22;27486;48.77806476;9.16920056;2022-09-30T12:22:26;19.60;57.40
2282;DHT22;27486;48.77806476;9.16920056;2022-09-30T12:25:26;19.70;58.60
2282;DHT22;27486;48.77806476;9.16920056;2022-09-30T12:28:28;19.80;79.80
2282;DHT22;27486;48.77806476;9.16920056;2022-09-30T12:45:07;19.40;74.30
2282;DHT22;27486;48.77806476;9.16920056;2022-09-30T12:47:59;19.60;73.50
2282;DHT22;27486;48.77806476;9.16920056;2022-09-30T12:50:52;19.80;73.10
2282;DHT22;27486;48.77806476;9.16920056;2022-09-30T12:53:40;20.00;72.60
2282;DHT22;27486;48.77806476;9.16920056;2022-09-30T12:56:27;20.20;70.70
2282;DHT22;27486;48.77806476;9.16920056;2022-09-30T12:59:12;20.30;69.80
2282;DHT22;27486;48.77806476;9.16920056;2022-09-30T13:01:59;20.40;67.60
2282;DHT22;27486;48.77806476;9.16920056;2022-09-30T13:04:43;20.50;61.30
2282;DHT22;27486;48.77806476;9.16920056;2022-09-30T13:07:32;20.70;59.30
2282;DHT22;27486;48.77806476;9.16920056;2022-09-30T13:10:27;20.80;59.20
2282;DHT22;27486;48.77806476;9.16920056;2022-09-30T13:13:30;21.10;56.10
2282;DHT22;27486;48.77806476;9.16920056;2022-09-30T13:19:45;21.80;50.10
2282;DHT22;27486;48.77806476;9.16920056;2022-09-30T13:22:40;21.80;49.00
2282;DHT22;27486;48.77806476;9.16920056;2022-09-30T13:25:24;21.80;48.40
2282;DHT22;27486;48.77806476;9.16920056;2022-09-30T13:28:26;21.60;48.00
2282;DHT22;27486;48.77806476;9.16920056;2022-09-30T13:31:22;21.30;49.20
2282;DHT22;27486;48.77806476;9.16920056;2022-09-30T13:34:13;21.50;48.90
2282;DHT22;27486;48.77806476;9.16920056;2022-09-30T13:37:04;21.50;47.90
2282;DHT22;27486;48.77806476;9.16920056;2022-09-30T13:39:53;21.50;46.80
2282;DHT22;27486;48.77806476;9.16920056;2022-09-30T13:42:40;21.70;47.10
2282;DHT22;27486;48.77806476;9.16920056;2022-09-30T13:45:33;22.10;46.70
2282;DHT22;27486;48.77806476;9.16920056;2022-09-30T13:48:27;22.40;44.10
2282;DHT22;27486;48.77806476;9.16920056;2022-09-30T13:51:15;22.60;47.40
2282;DHT22;27486;48.77806476;9.16920056;2022-09-30T13:56:52;22.80;38.30
2282;DHT22;27486;48.77806476;9.16920056;2022-09-30T14:00:09;22.70;39.20
2282;DHT22;27486;48.77806476;9.16920056;2022-09-30T14:03:29;22.80;39.20
2282;DHT22;27486;48.77806476;9.16920056;2022-09-30T14:09:49;22.80;38.00
2282;DHT22;27486;48.77806476;9.16920056;2022-09-30T14:13:05;22.60;38.40
2282;DHT22;27486;48.77806476;9.16920056;2022-09-30T14:19:51;21.90;39.60
2282;DHT22;27486;48.77806476;9.16920056;2022-09-30T14:22:36;21.50;40.50
2282;DHT22;27486;48.77806476;9.16920056;2022-09-30T14:25:21;21.30;41.30
2282;DHT22;27486;48.77806476;9.16920056;2022-09-30T14:28:12;21.30;41.30
2282;DHT22;27486;48.77806476;9.16920056;2022-09-30T14:31:00;21.00;41.40
2282;DHT22;27486;48.77806476;9.16920056;2022-09-30T14:33:56;20.70;41.80
2282;DHT22;27486;48.77806476;9.16920056;2022-09-30T14:36:41;20.70;42.70
2282;DHT22;27486;48.77806476;9.16920056;2022-09-30T14:39:28;20.60;42.90
2282;DHT22;27486;48.77806476;9.16920056;2022-09-30T14:42:49;20.40;43.20
2282;DHT22;27486;48.77806476;9.16920056;2022-09-30T14:45:33;20.30;43.50
2282;DHT22;27486;48.77806476;9.16920056;2022-09-30T14:48:22;20.50;43.00
2282;DHT22;27486;48.77806476;9.16920056;2022-09-30T14:51:11;20.70;43.30
2282;DHT22;27486;48.77806476;9.16920056;2022-09-30T14:53:59;21.20;42.40
2282;DHT22;27486;48.77806476;9.16920056;2022-09-30T14:56:45;21.40;41.60
2282;DHT22;27486;48.77806476;9.16920056;2022-09-30T14:59:33;21.20;41.70
2282;DHT22;27486;48.77806476;9.16920056;2022-09-30T15:02:19;21.10;42.40
2282;DHT22;27486;48.77806476;9.16920056;2022-09-30T15:05:03;20.70;42.70
2282;DHT22;27486;48.77806476;9.16920056;2022-09-30T15:07:48;20.40;43.70
2282;DHT22;27486;48.77806476;9.16920056;2022-09-30T15:10:32;20.40;44.20
2282;DHT22;27486;48.77806476;9.16920056;2022-09-30T15:13:30;21.40;43.40
2282;DHT22;27486;48.77806476;9.16920056;2022-09-30T15:16:25;23.70;38.60
2282;DHT22;27486;48.77806476;9.16920056;2022-09-30T15:19:27;24.00;38.80
2282;DHT22;27486;48.77806476;9.16920056;2022-09-30T15:22:13;25.00;36.60
2282;DHT22;27486;48.77806476;9.16920056;2022-09-30T15:24:57;25.40;36.00
2282;DHT22;27486;48.77806476;9.16920056;2022-09-30T15:27:42;26.20;34.60
2282;DHT22;27486;48.77806476;9.16920056;2022-09-30T15:30:28;26.70;33.50
2282;DHT22;27486;48.77806476;9.16920056;2022-09-30T15:33:15;26.50;33.00
2282;DHT22;27486;48.77806476;9.16920056;2022-09-30T15:36:13;26.40;33.20
2282;DHT22;27486;48.77806476;9.16920056;2022-09-30T15:38:58;26.40;32.50
2282;DHT22;27486;48.77806476;9.16920056;2022-09-30T15:44:36;27.50;31.00
2282;DHT22;27486;48.77806476;9.16920056;2022-09-30T15:47:21;28.20;30.40
2282;DHT22;27486;48.77806476;9.16920056;2022-09-30T15:53:29;28.30;29.20
2282;DHT22;27486;48.77806476;9.16920056;2022-09-30T15:59:17;26.40;31.50
2282;DHT22;27486;48.77806476;9.16920056;2022-09-30T16:02:02;25.80;32.70
2282;DHT22;27486;48.77806476;9.16920056;2022-09-30T16:04:50;25.70;33.00
2282;DHT22;27486;48.77806476;9.16920056;2022-09-30T16:07:35;25.30;33.10
2282;DHT22;27486;48.77806476;9.16920056;2022-09-30T16:10:19;25.00;34.00
2282;DHT22;27486;48.77806476;9.16920056;2022-09-30T16:13:04;24.70;34.50
2282;DHT22;27486;48.77806476;9.16920056;2022-09-30T16:15:51;24.40;34.70
2282;DHT22;27486;48.77806476;9.16920056;2022-09-30T16:18:42;23.90;35.70
2282;DHT22;27486;48.77806476;9.16920056;2022-09-30T16:21:42;23.50;36.60
2282;DHT22;27486;48.77806476;9.16920056;2022-09-30T16:27:26;23.10;37.50
2282;DHT22;27486;48.77806476;9.16920056;2022-09-30T16:30:17;23.10;37.80
2282;DHT22;27486;48.77806476;9.16920056;2022-09-30T16:33:04;23.00;38.30
2282;DHT22;27486;48.77806476;9.16920056;2022-09-30T16:35:49;22.80;38.20
2282;DHT22;27486;48.77806476;9.16920056;2022-09-30T16:38:33;22.50;38.00
2282;DHT22;27486;48.77806476;9.16920056;2022-09-30T16:41:17;22.20;39.10
2282;DHT22;27486;48.77806476;9.16920056;2022-09-30T16:44:01;21.90;40.20
2282;DHT22;27486;48.77806476;9.16920056;2022-09-30T16:46:45;21.40;41.20
2282;DHT22;27486;48.77806476;9.16920056;2022-09-30T16:49:29;20.70;42.20
2282;DHT22;27486;48.77806476;9.16920056;2022-09-30T16:52:13;20.10;43.70
2282;DHT22;27486;48.77806476;9.16920056;2022-09-30T16:54:57;19.50;44.90
2282;DHT22;27486;48.77806476;9.16920056;2022-09-30T16:57:41;19.00;45.90
2282;DHT22;27486;48.77806476;9.16920056;2022-09-30T17:00:26;18.70;46.90
2282;DHT22;27486;48.77806476;9.16920056;2022-09-30T17:03:12;18.40;47.70
2282;DHT22;27486;48.77806476;9.16920056;2022-09-30T17:05:58;18.10;48.60
2282;DHT22;27486;48.77806476;9.16920056;2022-09-30T17:08:43;17.80;49.70
2282;DHT22;27486;48.77806476;9.16920056;2022-09-30T17:11:31;17.50;50.70
2282;DHT22;27486;48.77806476;9.16920056;2022-09-30T17:14:16;17.30;51.70
2282;DHT22;27486;48.77806476;9.16920056;2022-09-30T17:17:00;17.00;53.10
2282;DHT22;27486;48.77806476;9.16920056;2022-09-30T17:19:44;16.70;54.50
2282;DHT22;27486;48.77806476;9.16920056;2022-09-30T17:22:28;16.50;55.50
2282;DHT22;27486;48.77806476;9.16920056;2022-09-30T17:25:13;16.30;56.70
2282;DHT22;27486;48.77806476;9.16920056;2022-09-30T17:27:57;16.10;57.50
2282;DHT22;27486;48.77806476;9.16920056;2022-09-30T17:30:44;16.00;58.00
2282;DHT22;27486;48.77806476;9.16920056;2022-09-30T17:33:35;15.80;58.80
2282;DHT22;27486;48.77806476;9.16920056;2022-09-30T17:36:19;15.70;58.90
2282;DHT22;27486;48.77806476;9.16920056;2022-09-30T17:39:03;15.60;59.90
2282;DHT22;27486;48.77806476;9.16920056;2022-09-30T17:41:49;15.40;61.30
2282;DHT22;27486;48.77806476;9.16920056;2022-09-30T17:44:51;15.30;62.00